Time,TemperatureF,DewpointF,PressureIn,WindDirection,WindDirectionDegrees,WindSpeedMPH,WindSpeedGustMPH,Humidity,HourlyPrecipIn,Conditions,Clouds,dailyrainin,SoftwareType,DateUTC
2013-10-12 00:09:00,52.6,47.0,29.50,South,172,5.0,11.0,80,0.00,,,0.00,weatherlink.com 1.10,2013-10-12 05:09:00,
2013-10-12 00:24:00,52.5,47.0,29.50,WSW,240,6.0,12.0,80,0.00,,,0.00,weatherlink.com 1.10,2013-10-12 05:24:00,
2013-10-12 00:39:00,52.6,47.0,29.50,WSW,245,10.0,11.0,80,0.00,,,0.00,weatherlink.com 1.10,2013-10-12 05:39:00,
2013-10-12 00:54:00,52.6,47.0,29.51,SSW,200,7.0,14.0,80,0.00,,,0.00,weatherlink.com 1.10,2013-10-12 05:54:00,
2013-10-12 01:09:00,52.3,46.0,29.51,SSW,208,4.0,10.0,80,0.00,,,0.00,weatherlink.com 1.10,2013-10-12 06:09:00,
2013-10-12 01:24:00,52.2,46.0,29.52,SSW,200,5.0,12.0,80,0.00,,,0.00,weatherlink.com 1.10,2013-10-12 06:24:00,
2013-10-12 01:39:00,52.4,46.0,29.52,SSE,163,2.0,9.0,80,0.00,,,0.00,weatherlink.com 1.10,2013-10-12 06:39:00,
2013-10-12 01:54:00,52.5,46.0,29.53,SSW,204,6.0,12.0,79,0.00,,,0.00,weatherlink.com 1.10,2013-10-12 06:54:00,
2013-10-12 02:09:00,52.4,46.0,29.53,SW,215,7.0,14.0,79,0.00,,,0.00,weatherlink.com 1.10,2013-10-12 07:09:00,
2013-10-12 02:24:00,52.3,46.0,29.54,WSW,256,3.0,13.0,79,0.00,,,0.00,weatherlink.com 1.10,2013-10-12 07:24:00,
2013-10-12 02:39:00,52.1,46.0,29.55,SSW,201,7.0,13.0,79,0.00,,,0.00,weatherlink.com 1.10,2013-10-12 07:39:00,
2013-10-12 02:54:00,51.9,46.0,29.55,SW,215,9.0,12.0,79,0.00,,,0.00,weatherlink.com 1.10,2013-10-12 07:54:00,
2013-10-12 03:09:00,51.7,46.0,29.56,SSW,210,10.0,12.0,80,0.00,,,0.00,weatherlink.com 1.10,2013-10-12 08:09:00,
2013-10-12 03:24:00,51.5,46.0,29.57,SW,232,5.0,11.0,80,0.00,,,0.00,weatherlink.com 1.10,2013-10-12 08:24:00,
2013-10-12 03:39:00,51.4,46.0,29.57,WSW,248,5.0,10.0,81,0.00,,,0.00,weatherlink.com 1.10,2013-10-12 08:39:00,
2013-10-12 03:55:00,51.4,46.0,29.58,SW,218,5.0,11.0,81,0.00,,,0.00,weatherlink.com 1.10,2013-10-12 08:55:00,
2013-10-12 04:10:00,51.3,46.0,29.59,SW,236,4.0,13.0,82,0.00,,,0.00,weatherlink.com 1.10,2013-10-12 09:10:00,
2013-10-12 04:25:00,51.2,46.0,29.59,WNW,301,2.0,9.0,83,0.00,,,0.00,weatherlink.com 1.10,2013-10-12 09:25:00,
2013-10-12 04:40:00,51.1,46.0,29.60,WSW,249,2.0,11.0,83,0.00,,,0.00,weatherlink.com 1.10,2013-10-12 09:40:00,
2013-10-12 04:55:00,50.8,46.0,29.61,SW,228,2.0,10.0,83,0.00,,,0.00,weatherlink.com 1.10,2013-10-12 09:55:00,
2013-10-12 05:10:00,50.8,46.0,29.62,SW,215,6.0,8.0,83,0.00,,,0.00,weatherlink.com 1.10,2013-10-12 10:10:00,
2013-10-12 05:25:00,50.5,46.0,29.63,West,269,3.0,10.0,84,0.00,,,0.00,weatherlink.com 1.10,2013-10-12 10:25:00,
2013-10-12 05:40:00,50.2,46.0,29.64,NW,314,2.0,6.0,84,0.00,,,0.00,weatherlink.com 1.10,2013-10-12 10:40:00,
2013-10-12 05:55:00,50.0,45.0,29.65,WSW,256,4.0,6.0,84,0.00,,,0.00,weatherlink.com 1.10,2013-10-12 10:55:00,
2013-10-12 06:10:00,50.0,45.0,29.66,West,270,1.0,7.0,84,0.00,,,0.00,weatherlink.com 1.10,2013-10-12 11:10:00,
2013-10-12 06:25:00,50.0,45.0,29.67,NNW,334,2.0,6.0,83,0.00,,,0.00,weatherlink.com 1.10,2013-10-12 11:25:00,
2013-10-12 06:40:00,50.0,45.0,29.68,WNW,283,2.0,6.0,82,0.00,,,0.00,weatherlink.com 1.10,2013-10-12 11:40:00,
2013-10-12 06:55:00,50.0,45.0,29.68,WSW,240,2.0,6.0,82,0.00,,,0.00,weatherlink.com 1.10,2013-10-12 11:55:00,
2013-10-12 07:10:00,49.3,45.0,29.70,West,264,3.0,6.0,84,0.00,,,0.00,weatherlink.com 1.10,2013-10-12 12:10:00,
2013-10-12 07:25:00,48.4,44.0,29.70,WSW,250,4.0,7.0,86,0.00,,,0.00,weatherlink.com 1.10,2013-10-12 12:25:00,
2013-10-12 07:40:00,47.5,44.0,29.72,West,274,1.0,9.0,88,0.00,,,0.00,weatherlink.com 1.10,2013-10-12 12:40:00,
2013-10-12 07:55:00,47.1,44.0,29.73,WSW,246,2.0,7.0,89,0.00,,,0.00,weatherlink.com 1.10,2013-10-12 12:55:00,
2013-10-12 08:10:00,46.8,44.0,29.75,WNW,284,3.0,6.0,89,0.02,,,0.02,weatherlink.com 1.10,2013-10-12 13:10:00,
2013-10-12 08:25:00,46.5,44.0,29.76,WSW,255,4.0,6.0,90,0.04,,,0.04,weatherlink.com 1.10,2013-10-12 13:25:00,
2013-10-12 08:40:00,46.2,44.0,29.76,West,281,3.0,8.0,90,0.05,,,0.05,weatherlink.com 1.10,2013-10-12 13:40:00,
2013-10-12 08:55:00,46.1,43.0,29.78,West,278,9.0,9.0,90,0.05,,,0.05,weatherlink.com 1.10,2013-10-12 13:55:00,
2013-10-12 09:11:00,46.1,43.0,29.79,West,266,2.0,8.0,89,0.03,,,0.05,weatherlink.com 1.10,2013-10-12 14:11:00,
2013-10-12 09:26:00,45.9,43.0,29.80,WNW,286,6.0,12.0,88,0.02,,,0.06,weatherlink.com 1.10,2013-10-12 14:26:00,
2013-10-12 09:41:00,45.7,42.0,29.81,WSW,257,7.0,10.0,88,0.02,,,0.07,weatherlink.com 1.10,2013-10-12 14:41:00,
2013-10-12 09:56:00,45.9,43.0,29.82,WNW,288,3.0,9.0,88,0.02,,,0.07,weatherlink.com 1.10,2013-10-12 14:56:00,
2013-10-12 10:11:00,46.0,43.0,29.83,WNW,282,3.0,7.0,88,0.04,,,0.09,weatherlink.com 1.10,2013-10-12 15:11:00,
2013-10-12 10:26:00,45.7,42.0,29.84,West,271,3.0,9.0,87,0.04,,,0.10,weatherlink.com 1.10,2013-10-12 15:26:00,
2013-10-12 10:41:00,45.5,42.0,29.85,West,267,4.0,12.0,88,0.03,,,0.10,weatherlink.com 1.10,2013-10-12 15:41:00,
2013-10-12 10:56:00,45.6,42.0,29.86,NW,316,5.0,8.0,88,0.04,,,0.11,weatherlink.com 1.10,2013-10-12 15:56:00,
2013-10-12 11:11:00,45.7,42.0,29.87,WSW,250,5.0,12.0,87,0.03,,,0.12,weatherlink.com 1.10,2013-10-12 16:11:00,
2013-10-12 11:26:00,45.9,42.0,29.88,West,264,7.0,11.0,87,0.04,,,0.14,weatherlink.com 1.10,2013-10-12 16:26:00,
2013-10-12 11:41:00,45.7,42.0,29.89,West,271,3.0,11.0,87,0.05,,,0.15,weatherlink.com 1.10,2013-10-12 16:41:00,
2013-10-12 11:56:00,45.6,42.0,29.90,WNW,285,4.0,8.0,86,0.05,,,0.16,weatherlink.com 1.10,2013-10-12 16:56:00,
2013-10-12 12:11:00,45.4,42.0,29.91,WNW,294,3.0,10.0,87,0.05,,,0.17,weatherlink.com 1.10,2013-10-12 17:11:00,
2013-10-12 12:26:00,45.3,42.0,29.93,SW,236,6.0,8.0,87,0.05,,,0.19,weatherlink.com 1.10,2013-10-12 17:26:00,
2013-10-12 12:41:00,45.4,42.0,29.93,West,264,1.0,7.0,88,0.05,,,0.20,weatherlink.com 1.10,2013-10-12 17:41:00,
2013-10-12 12:56:00,46.1,43.0,29.94,WSW,248,5.0,6.0,87,0.04,,,0.20,weatherlink.com 1.10,2013-10-12 17:56:00,
2013-10-12 13:11:00,46.8,42.0,29.95,West,278,6.0,10.0,83,0.02,,,0.20,weatherlink.com 1.10,2013-10-12 18:11:00,
2013-10-12 13:27:00,47.2,43.0,29.96,West,259,3.0,11.0,84,0.01,,,0.20,weatherlink.com 1.10,2013-10-12 18:27:00,
2013-10-12 13:42:00,47.1,42.0,29.96,WSW,246,3.0,9.0,81,0.01,,,0.21,weatherlink.com 1.10,2013-10-12 18:42:00,
2013-10-12 13:57:00,47.7,41.0,29.97,WNW,303,3.0,15.0,78,0.01,,,0.21,weatherlink.com 1.10,2013-10-12 18:57:00,
2013-10-12 14:12:00,48.3,41.0,29.98,WNW,293,3.0,12.0,76,0.01,,,0.21,weatherlink.com 1.10,2013-10-12 19:12:00,
2013-10-12 14:27:00,48.6,41.0,29.99,WNW,297,5.0,10.0,76,0.01,,,0.21,weatherlink.com 1.10,2013-10-12 19:27:00,
2013-10-12 14:42:00,48.7,42.0,30.00,WNW,297,6.0,8.0,77,0.00,,,0.21,weatherlink.com 1.10,2013-10-12 19:42:00,
2013-10-12 14:57:00,49.3,42.0,30.00,West,278,2.0,9.0,76,0.00,,,0.21,weatherlink.com 1.10,2013-10-12 19:57:00,
2013-10-12 15:12:00,50.1,42.0,30.01,West,271,1.0,5.0,75,0.00,,,0.21,weatherlink.com 1.10,2013-10-12 20:12:00,
2013-10-12 15:27:00,50.8,43.0,30.02,West,260,1.0,5.0,74,0.00,,,0.21,weatherlink.com 1.10,2013-10-12 20:27:00,
2013-10-12 15:42:00,51.5,43.0,30.02,WNW,294,2.0,6.0,73,0.00,,,0.21,weatherlink.com 1.10,2013-10-12 20:42:00,
2013-10-12 15:57:00,52.5,42.0,30.03,WNW,287,3.0,11.0,67,0.00,,,0.21,weatherlink.com 1.10,2013-10-12 20:57:00,
2013-10-12 16:12:00,52.8,41.0,30.04,WNW,301,9.0,9.0,65,0.00,,,0.21,weatherlink.com 1.10,2013-10-12 21:12:00,
2013-10-12 16:27:00,54.1,39.0,30.04,NW,309,2.0,15.0,58,0.00,,,0.21,weatherlink.com 1.10,2013-10-12 21:27:00,
2013-10-12 16:42:00,54.1,38.0,30.05,West,280,4.0,14.0,55,0.00,,,0.21,weatherlink.com 1.10,2013-10-12 21:42:00,
2013-10-12 16:57:00,54.6,37.0,30.06,WNW,288,2.0,13.0,52,0.00,,,0.21,weatherlink.com 1.10,2013-10-12 21:57:00,
2013-10-12 17:12:00,54.9,36.0,30.08,West,259,3.0,12.0,49,0.00,,,0.21,weatherlink.com 1.10,2013-10-12 22:12:00,
2013-10-12 17:27:00,54.4,37.0,30.09,West,274,3.0,14.0,52,0.00,,,0.21,weatherlink.com 1.10,2013-10-12 22:27:00,
2013-10-12 17:42:00,53.9,35.0,30.09,West,266,3.0,17.0,50,0.00,,,0.21,weatherlink.com 1.10,2013-10-12 22:42:00,
2013-10-12 17:57:00,53.6,35.0,30.10,WNW,294,6.0,14.0,50,0.00,,,0.21,weatherlink.com 1.10,2013-10-12 22:57:00,
2013-10-12 18:12:00,53.1,35.0,30.11,NW,322,2.0,11.0,51,0.00,,,0.21,weatherlink.com 1.10,2013-10-12 23:12:00,
2013-10-12 18:27:00,52.5,36.0,30.11,WNW,290,7.0,9.0,53,0.00,,,0.21,weatherlink.com 1.10,2013-10-12 23:27:00,
2013-10-12 18:42:00,51.7,35.0,30.12,WNW,284,2.0,10.0,54,0.00,,,0.21,weatherlink.com 1.10,2013-10-12 23:42:00,
2013-10-12 18:57:00,50.6,35.0,30.13,WNW,302,1.0,5.0,56,0.00,,,0.21,weatherlink.com 1.10,2013-10-12 23:57:00,
2013-10-12 19:12:00,49.5,36.0,30.14,WSW,256,1.0,4.0,59,0.00,,,0.21,weatherlink.com 1.10,2013-10-13 00:12:00,
2013-10-12 19:27:00,48.9,35.0,30.15,WNW,290,1.0,3.0,60,0.00,,,0.21,weatherlink.com 1.10,2013-10-13 00:27:00,
2013-10-12 19:42:00,48.2,35.0,30.16,West,267,1.0,3.0,61,0.00,,,0.21,weatherlink.com 1.10,2013-10-13 00:42:00,
2013-10-12 19:57:00,47.6,35.0,30.17,WNW,297,1.0,5.0,61,0.00,,,0.21,weatherlink.com 1.10,2013-10-13 00:57:00,
2013-10-12 20:12:00,47.0,34.0,30.18,West,260,1.0,2.0,62,0.00,,,0.21,weatherlink.com 1.10,2013-10-13 01:12:00,
2013-10-12 20:28:00,45.8,35.0,30.19,West,267,1.0,2.0,65,0.00,,,0.21,weatherlink.com 1.10,2013-10-13 01:28:00,
2013-10-12 20:43:00,45.3,34.0,30.20,West,269,0.0,2.0,65,0.00,,,0.21,weatherlink.com 1.10,2013-10-13 01:43:00,
2013-10-12 20:58:00,44.9,34.0,30.20,WSW,255,2.0,3.0,66,0.00,,,0.21,weatherlink.com 1.10,2013-10-13 01:58:00,
2013-10-12 21:13:00,44.2,34.0,30.21,WSW,249,0.0,2.0,67,0.00,,,0.21,weatherlink.com 1.10,2013-10-13 02:13:00,
2013-10-12 21:28:00,43.0,34.0,30.22,West,259,1.0,3.0,70,0.00,,,0.21,weatherlink.com 1.10,2013-10-13 02:28:00,
2013-10-12 21:43:00,42.0,34.0,30.23,West,266,1.0,2.0,72,0.00,,,0.21,weatherlink.com 1.10,2013-10-13 02:43:00,
2013-10-12 21:58:00,41.6,34.0,30.24,WNW,288,1.0,2.0,74,0.00,,,0.21,weatherlink.com 1.10,2013-10-13 02:58:00,
2013-10-12 22:13:00,41.6,34.0,30.25,WSW,246,3.0,3.0,73,0.00,,,0.21,weatherlink.com 1.10,2013-10-13 03:13:00,
2013-10-12 22:28:00,41.5,34.0,30.25,West,267,2.0,2.0,74,0.00,,,0.21,weatherlink.com 1.10,2013-10-13 03:28:00,
2013-10-12 22:43:00,41.4,34.0,30.26,West,259,0.0,2.0,74,0.00,,,0.21,weatherlink.com 1.10,2013-10-13 03:43:00,
2013-10-12 22:58:00,41.4,34.0,30.26,West,263,1.0,3.0,74,0.00,,,0.21,weatherlink.com 1.10,2013-10-13 03:58:00,
2013-10-12 23:13:00,41.2,34.0,30.27,West,260,2.0,3.0,74,0.00,,,0.21,weatherlink.com 1.10,2013-10-13 04:13:00,
2013-10-12 23:28:00,40.8,33.0,30.27,WSW,252,1.0,3.0,75,0.00,,,0.21,weatherlink.com 1.10,2013-10-13 04:28:00,
2013-10-12 23:43:00,40.2,33.0,30.28,West,264,1.0,2.0,76,0.00,,,0.21,weatherlink.com 1.10,2013-10-13 04:43:00,
2013-10-12 23:58:00,39.5,33.0,30.28,West,274,0.0,2.0,78,0.00,,,0.21,weatherlink.com 1.10,2013-10-13 04:58:00,